Etusivu
METAR-TAF:

METAR-TAF

Lentoasemat :

Amman, Jordania

Leveyspiiri: 31-59N, Pituuspiiri: 035-59E, korkeus merenpinnasta: 767 m

Tämänhetkinen sää

Tämä raportti tehtiin 37 minuuttia sitten, kello 01.00 UTC
tyyntä
Lämpötila 13°C
Kosteus 35%
Ilmanpaine 1019 hPa
Näkyvyys: 6000 m

METAR: OJAM 120100Z 00000KT 6000 NSC 13/M02 Q1019 NOSIG

Aika: 03:37 (01:37 UTC)

Sääennuste

Tämä raportti tehtiin 2 tuntia ja 47 minuuttia sitten, kello 22.50 UTC
Ennuste voimassa 12. päivästä klo 00 UTC - 13. päivään klo 06 UTC
Tuuli 2 kn eri suunnista
Näkyvyys: 7000 m
Ajoittain
12. päivästä klo 03 UTC - 12. päivään klo 05 UTC
Näkyvyys: 3000 m
savua
Tulossa
12. päivästä klo 05 UTC - 12. päivään klo 07 UTC
Tuuli 12 kn idästä
Näkyvyys: 5000 m
Muutamia pilviä 4000 ft:n korkeudessa
usvaa

TAF: OJAM 112250Z 1200/1306 VRB02KT 7000 NSC TEMPO 1203/1205 3000 FU BECMG 1205/1207 09012KT 5000 HZ FEW040

Säähavainnot ja -ennusteet yli 4000 lentoasemalta (METAR- ja TAF-raportit).

Käytössä olevat sääasemat on merkitty karttaan keltaisilla ja punaisilla pisteillä.

Aseta hiiri pisteen päälle nähdäksesi sääaseman nimen.

Klikkaa sitten nähdäksesi säähavainnot ja -ennusteet.

Kartan vaihtaminen: klikkaa mustalla rastilla varustettuja vihreitä pisteitä, niin voit zoomata sisään; viivalla varustettua vihreää pistettä, niin voit zoomata ulos tai vihreitä nuolia, niin pääset viereisille kartoille.


METAR-TAF: